sensor_id;sensor_type;location;lat;lon;timestamp;pressure;altitude;pressure_sealevel;temperature;humidity
3968;BME280;9221;42.646;23.380;2023-03-14T00:00:13;94673.50;;;5.22;50.32
3968;BME280;9221;42.646;23.380;2023-03-14T00:02:39;94775.97;;;5.38;50.60
3968;BME280;9221;42.646;23.380;2023-03-14T00:05:05;94679.84;;;4.95;50.72
3968;BME280;9221;42.646;23.380;2023-03-14T00:07:35;94776.59;;;5.06;51.09
3968;BME280;9221;42.646;23.380;2023-03-14T00:10:08;94714.09;;;5.03;51.22
3968;BME280;9221;42.646;23.380;2023-03-14T00:12:34;94650.75;;;4.64;51.23
3968;BME280;9221;42.646;23.380;2023-03-14T00:15:00;94703.50;;;4.94;51.30
3968;BME280;9221;42.646;23.380;2023-03-14T00:17:27;94646.31;;;4.53;51.18
3968;BME280;9221;42.646;23.380;2023-03-14T00:19:53;94634.31;;;4.51;51.38
3968;BME280;9221;42.646;23.380;2023-03-14T00:22:19;94699.09;;;4.94;51.54
3968;BME280;9221;42.646;23.380;2023-03-14T00:24:45;94694.38;;;4.99;51.10
3968;BME280;9221;42.646;23.380;2023-03-14T00:27:10;94605.84;;;4.59;51.19
3968;BME280;9221;42.646;23.380;2023-03-14T00:29:35;94672.88;;;5.07;51.75
3968;BME280;9221;42.646;23.380;2023-03-14T00:32:01;94697.22;;;4.96;51.78
3968;BME280;9221;42.646;23.380;2023-03-14T00:34:30;94606.34;;;4.64;52.15
3968;BME280;9221;42.646;23.380;2023-03-14T00:36:56;94616.25;;;4.72;52.68
3968;BME280;9221;42.646;23.380;2023-03-14T00:39:21;94597.38;;;4.80;52.44
3968;BME280;9221;42.646;23.380;2023-03-14T00:41:47;94518.47;;;4.40;52.36
3968;BME280;9221;42.646;23.380;2023-03-14T00:44:13;94625.13;;;5.16;52.23
3968;BME280;9221;42.646;23.380;2023-03-14T00:46:38;94656.31;;;5.42;52.47
3968;BME280;9221;42.646;23.380;2023-03-14T00:49:04;94602.41;;;5.05;52.19
3968;BME280;9221;42.646;23.380;2023-03-14T00:51:30;94575.63;;;4.68;52.53
3968;BME280;9221;42.646;23.380;2023-03-14T00:53:55;94659.41;;;4.89;53.66
3968;BME280;9221;42.646;23.380;2023-03-14T00:56:39;94649.47;;;5.05;53.48
3968;BME280;9221;42.646;23.380;2023-03-14T00:59:04;94629.28;;;5.07;53.24
3968;BME280;9221;42.646;23.380;2023-03-14T01:01:30;94610.50;;;5.02;52.82
3968;BME280;9221;42.646;23.380;2023-03-14T01:03:55;94589.09;;;4.97;52.92
3968;BME280;9221;42.646;23.380;2023-03-14T01:06:24;94682.25;;;5.09;52.91
3968;BME280;9221;42.646;23.380;2023-03-14T01:08:50;94724.03;;;5.22;53.03
3968;BME280;9221;42.646;23.380;2023-03-14T01:11:18;94666.63;;;5.21;52.78
3968;BME280;9221;42.646;23.380;2023-03-14T01:13:45;94576.94;;;4.73;53.61
3968;BME280;9221;42.646;23.380;2023-03-14T01:16:11;94582.84;;;4.64;54.15
3968;BME280;9221;42.646;23.380;2023-03-14T01:18:38;94622.13;;;4.87;54.33
3968;BME280;9221;42.646;23.380;2023-03-14T01:21:29;94590.41;;;4.45;54.56
3968;BME280;9221;42.646;23.380;2023-03-14T01:23:57;94637.03;;;4.73;55.14
3968;BME280;9221;42.646;23.380;2023-03-14T01:26:24;94559.47;;;4.27;55.13
3968;BME280;9221;42.646;23.380;2023-03-14T01:28:52;94601.97;;;3.92;55.12
3968;BME280;9221;42.646;23.380;2023-03-14T01:31:18;94578.34;;;4.06;55.36
3968;BME280;9221;42.646;23.380;2023-03-14T01:33:45;94611.41;;;4.19;55.96
3968;BME280;9221;42.646;23.380;2023-03-14T01:36:11;94674.50;;;4.37;55.99
3968;BME280;9221;42.646;23.380;2023-03-14T01:38:38;94563.91;;;4.14;55.62
3968;BME280;9221;42.646;23.380;2023-03-14T01:41:04;94639.44;;;4.28;55.25
3968;BME280;9221;42.646;23.380;2023-03-14T01:43:30;94558.78;;;4.36;54.67
3968;BME280;9221;42.646;23.380;2023-03-14T01:46:11;94609.97;;;4.74;54.94
3968;BME280;9221;42.646;23.380;2023-03-14T01:51:15;94553.09;;;4.43;55.09
3968;BME280;9221;42.646;23.380;2023-03-14T01:53:42;94571.91;;;4.59;55.41
3968;BME280;9221;42.646;23.380;2023-03-14T01:56:11;94586.41;;;4.63;55.56
3968;BME280;9221;42.646;23.380;2023-03-14T01:58:41;94551.28;;;4.32;56.04
3968;BME280;9221;42.646;23.380;2023-03-14T02:01:08;94577.38;;;4.56;55.81
3968;BME280;9221;42.646;23.380;2023-03-14T02:03:38;94450.16;;;3.76;56.34
3968;BME280;9221;42.646;23.380;2023-03-14T02:06:11;94592.13;;;4.68;56.23
3968;BME280;9221;42.646;23.380;2023-03-14T02:08:37;94598.47;;;4.77;56.14
3968;BME280;9221;42.646;23.380;2023-03-14T02:11:05;94543.13;;;4.36;56.26
3968;BME280;9221;42.646;23.380;2023-03-14T02:13:32;94587.56;;;4.23;56.33
3968;BME280;9221;42.646;23.380;2023-03-14T02:15:57;94533.06;;;4.43;55.40
3968;BME280;9221;42.646;23.380;2023-03-14T02:18:23;94547.44;;;4.49;55.47
3968;BME280;9221;42.646;23.380;2023-03-14T02:20:51;94586.91;;;4.80;55.13
3968;BME280;9221;42.646;23.380;2023-03-14T02:26:22;94536.50;;;3.84;57.97
3968;BME280;9221;42.646;23.380;2023-03-14T02:28:49;94578.84;;;3.87;59.82
3968;BME280;9221;42.646;23.380;2023-03-14T02:31:16;94681.31;;;3.77;60.51
3968;BME280;9221;42.646;23.380;2023-03-14T02:33:42;94609.28;;;3.50;61.49
3968;BME280;9221;42.646;23.380;2023-03-14T02:36:11;94560.38;;;3.66;60.91
3968;BME280;9221;42.646;23.380;2023-03-14T02:41:04;94533.91;;;3.47;61.41
3968;BME280;9221;42.646;23.380;2023-03-14T02:43:29;94584.69;;;3.91;61.57
3968;BME280;9221;42.646;23.380;2023-03-14T02:45:55;94467.19;;;3.20;61.00
3968;BME280;9221;42.646;23.380;2023-03-14T02:48:29;94583.91;;;4.26;60.28
3968;BME280;9221;42.646;23.380;2023-03-14T02:50:58;94629.66;;;4.19;59.26
3968;BME280;9221;42.646;23.380;2023-03-14T02:53:26;94570.41;;;4.32;58.89
3968;BME280;9221;42.646;23.380;2023-03-14T02:55:52;94596.25;;;4.60;58.75
3968;BME280;9221;42.646;23.380;2023-03-14T02:58:18;94587.53;;;4.48;58.41
3968;BME280;9221;42.646;23.380;2023-03-14T03:00:44;94533.81;;;4.21;58.35
3968;BME280;9221;42.646;23.380;2023-03-14T03:03:09;94597.31;;;4.57;58.73
3968;BME280;9221;42.646;23.380;2023-03-14T03:05:35;94537.16;;;4.23;58.80
3968;BME280;9221;42.646;23.380;2023-03-14T03:08:00;94601.50;;;4.60;58.62
3968;BME280;9221;42.646;23.380;2023-03-14T03:10:27;94584.53;;;4.65;58.33
3968;BME280;9221;42.646;23.380;2023-03-14T03:12:52;94548.38;;;4.48;57.70
3968;BME280;9221;42.646;23.380;2023-03-14T03:15:18;94585.97;;;4.69;57.47
3968;BME280;9221;42.646;23.380;2023-03-14T03:17:43;94576.94;;;4.62;57.65
3968;BME280;9221;42.646;23.380;2023-03-14T03:20:09;94574.69;;;4.69;57.54
3968;BME280;9221;42.646;23.380;2023-03-14T03:22:36;94578.16;;;4.45;57.40
3968;BME280;9221;42.646;23.380;2023-03-14T03:25:03;94578.09;;;4.58;57.68
3968;BME280;9221;42.646;23.380;2023-03-14T03:27:33;94629.44;;;4.70;58.01
3968;BME280;9221;42.646;23.380;2023-03-14T03:29:59;94534.28;;;4.15;58.42
3968;BME280;9221;42.646;23.380;2023-03-14T03:32:25;94543.03;;;4.14;59.03
3968;BME280;9221;42.646;23.380;2023-03-14T03:34:50;94615.22;;;4.26;59.14
3968;BME280;9221;42.646;23.380;2023-03-14T03:37:16;94482.72;;;3.94;58.63
3968;BME280;9221;42.646;23.380;2023-03-14T03:39:41;94544.63;;;4.28;58.36
3968;BME280;9221;42.646;23.380;2023-03-14T03:42:07;94519.00;;;4.21;58.72
3968;BME280;9221;42.646;23.380;2023-03-14T03:44:32;94577.78;;;4.38;59.12
3968;BME280;9221;42.646;23.380;2023-03-14T03:46:58;94579.56;;;4.38;59.26
3968;BME280;9221;42.646;23.380;2023-03-14T03:49:23;94530.38;;;3.96;59.81
3968;BME280;9221;42.646;23.380;2023-03-14T03:51:48;94544.97;;;3.99;59.75
3968;BME280;9221;42.646;23.380;2023-03-14T03:54:14;94596.13;;;4.26;59.82
3968;BME280;9221;42.646;23.380;2023-03-14T03:56:39;94573.13;;;3.82;60.61
3968;BME280;9221;42.646;23.380;2023-03-14T03:59:05;94652.34;;;4.05;60.60
3968;BME280;9221;42.646;23.380;2023-03-14T04:01:30;94553.03;;;3.96;60.49
3968;BME280;9221;42.646;23.380;2023-03-14T04:03:55;94570.03;;;4.01;60.58
3968;BME280;9221;42.646;23.380;2023-03-14T04:06:21;94597.44;;;4.31;60.14
3968;BME280;9221;42.646;23.380;2023-03-14T04:08:46;94632.38;;;4.17;60.00
3968;BME280;9221;42.646;23.380;2023-03-14T04:11:12;94545.56;;;3.54;60.83
3968;BME280;9221;42.646;23.380;2023-03-14T04:13:37;94525.78;;;3.38;61.37
3968;BME280;9221;42.646;23.380;2023-03-14T04:16:03;94537.09;;;3.26;62.41
3968;BME280;9221;42.646;23.380;2023-03-14T04:18:28;94605.34;;;3.57;62.74
3968;BME280;9221;42.646;23.380;2023-03-14T04:20:56;94629.53;;;3.33;63.27
3968;BME280;9221;42.646;23.380;2023-03-14T04:23:23;94510.47;;;2.84;63.72
3968;BME280;9221;42.646;23.380;2023-03-14T04:25:50;94606.44;;;3.16;63.79
3968;BME280;9221;42.646;23.380;2023-03-14T04:28:16;94592.13;;;3.34;64.20
3968;BME280;9221;42.646;23.380;2023-03-14T04:30:41;94530.25;;;3.12;64.13
3968;BME280;9221;42.646;23.380;2023-03-14T04:33:07;94513.63;;;3.26;63.62
3968;BME280;9221;42.646;23.380;2023-03-14T04:35:33;94591.78;;;3.52;63.29
3968;BME280;9221;42.646;23.380;2023-03-14T04:37:58;94493.38;;;2.93;63.51
3968;BME280;9221;42.646;23.380;2023-03-14T04:40:25;94512.66;;;2.90;64.05
3968;BME280;9221;42.646;23.380;2023-03-14T04:42:50;94586.09;;;3.34;64.23
3968;BME280;9221;42.646;23.380;2023-03-14T04:45:16;94504.00;;;3.02;63.50
3968;BME280;9221;42.646;23.380;2023-03-14T04:47:41;94499.00;;;2.99;64.58
3968;BME280;9221;42.646;23.380;2023-03-14T04:50:07;94481.91;;;2.95;64.56
3968;BME280;9221;42.646;23.380;2023-03-14T04:52:33;94497.94;;;3.15;64.09
3968;BME280;9221;42.646;23.380;2023-03-14T04:54:58;94444.06;;;2.65;63.95
3968;BME280;9221;42.646;23.380;2023-03-14T04:57:24;94508.38;;;2.89;64.41
3968;BME280;9221;42.646;23.380;2023-03-14T04:59:49;94562.44;;;3.11;64.82
3968;BME280;9221;42.646;23.380;2023-03-14T05:02:14;94489.84;;;2.81;64.67
3968;BME280;9221;42.646;23.380;2023-03-14T05:04:40;94552.41;;;3.18;64.80
3968;BME280;9221;42.646;23.380;2023-03-14T05:07:05;94520.84;;;3.10;64.83
3968;BME280;9221;42.646;23.380;2023-03-14T05:09:31;94488.38;;;3.02;64.58
3968;BME280;9221;42.646;23.380;2023-03-14T05:11:56;94539.13;;;3.47;64.29
3968;BME280;9221;42.646;23.380;2023-03-14T05:14:21;94493.22;;;3.20;65.02
3968;BME280;9221;42.646;23.380;2023-03-14T05:16:47;94571.78;;;3.77;64.67
3968;BME280;9221;42.646;23.380;2023-03-14T05:19:12;94562.28;;;3.51;64.50
3968;BME280;9221;42.646;23.380;2023-03-14T05:21:37;94479.63;;;3.03;64.75
3968;BME280;9221;42.646;23.380;2023-03-14T05:24:03;94493.13;;;3.21;65.05
3968;BME280;9221;42.646;23.380;2023-03-14T05:26:29;94525.69;;;3.40;64.41
3968;BME280;9221;42.646;23.380;2023-03-14T05:28:55;94582.44;;;3.73;63.48
3968;BME280;9221;42.646;23.380;2023-03-14T05:31:20;94554.75;;;3.47;62.48
3968;BME280;9221;42.646;23.380;2023-03-14T05:33:45;94364.66;;;2.34;62.64
3968;BME280;9221;42.646;23.380;2023-03-14T05:36:12;94475.78;;;2.70;63.89
3968;BME280;9221;42.646;23.380;2023-03-14T05:38:37;94487.97;;;2.70;64.92
3968;BME280;9221;42.646;23.380;2023-03-14T05:41:03;94576.81;;;2.65;65.66
3968;BME280;9221;42.646;23.380;2023-03-14T05:43:28;94527.53;;;2.88;66.31
3968;BME280;9221;42.646;23.380;2023-03-14T05:45:54;94486.75;;;2.63;66.58
3968;BME280;9221;42.646;23.380;2023-03-14T05:48:19;94539.53;;;2.91;66.52
3968;BME280;9221;42.646;23.380;2023-03-14T05:50:44;94368.19;;;2.20;65.95
3968;BME280;9221;42.646;23.380;2023-03-14T05:53:10;94498.34;;;3.21;65.27
3968;BME280;9221;42.646;23.380;2023-03-14T05:55:35;94580.59;;;3.50;64.65
3968;BME280;9221;42.646;23.380;2023-03-14T05:58:01;94529.44;;;3.49;64.58
3968;BME280;9221;42.646;23.380;2023-03-14T06:00:26;94520.94;;;3.58;64.25
3968;BME280;9221;42.646;23.380;2023-03-14T06:02:51;94484.44;;;3.58;62.82
3968;BME280;9221;42.646;23.380;2023-03-14T06:05:17;94549.22;;;3.88;63.11
3968;BME280;9221;42.646;23.380;2023-03-14T06:07:42;94549.31;;;4.11;63.17
3968;BME280;9221;42.646;23.380;2023-03-14T06:10:08;94547.81;;;4.20;61.83
3968;BME280;9221;42.646;23.380;2023-03-14T06:12:34;94549.19;;;4.37;62.02
3968;BME280;9221;42.646;23.380;2023-03-14T06:14:59;94527.16;;;4.17;60.61
3968;BME280;9221;42.646;23.380;2023-03-14T06:17:25;94498.94;;;4.22;60.34
3968;BME280;9221;42.646;23.380;2023-03-14T06:19:50;94543.94;;;4.72;59.90
3968;BME280;9221;42.646;23.380;2023-03-14T06:22:16;94604.88;;;4.49;60.31
3968;BME280;9221;42.646;23.380;2023-03-14T06:24:41;94573.19;;;4.42;60.61
3968;BME280;9221;42.646;23.380;2023-03-14T06:27:06;94554.09;;;4.53;60.49
3968;BME280;9221;42.646;23.380;2023-03-14T06:29:32;94579.06;;;4.68;60.54
3968;BME280;9221;42.646;23.380;2023-03-14T06:31:57;94508.03;;;4.40;59.84
3968;BME280;9221;42.646;23.380;2023-03-14T06:34:22;94560.78;;;4.80;60.00
3968;BME280;9221;42.646;23.380;2023-03-14T06:36:48;94555.38;;;4.83;59.78
3968;BME280;9221;42.646;23.380;2023-03-14T06:39:13;94493.44;;;4.61;59.38
3968;BME280;9221;42.646;23.380;2023-03-14T06:41:39;94549.31;;;5.16;59.95
3968;BME280;9221;42.646;23.380;2023-03-14T06:44:04;94583.09;;;5.42;58.92
3968;BME280;9221;42.646;23.380;2023-03-14T06:46:30;94608.50;;;5.29;57.38
3968;BME280;9221;42.646;23.380;2023-03-14T06:48:55;94541.84;;;5.34;57.21
3968;BME280;9221;42.646;23.380;2023-03-14T06:51:21;94569.16;;;5.30;56.80
3968;BME280;9221;42.646;23.380;2023-03-14T06:53:46;94485.78;;;5.16;57.16
3968;BME280;9221;42.646;23.380;2023-03-14T06:56:12;94491.31;;;5.56;56.83
3968;BME280;9221;42.646;23.380;2023-03-14T06:58:37;94470.31;;;5.79;55.04
3968;BME280;9221;42.646;23.380;2023-03-14T07:01:03;94530.47;;;6.02;54.36
3968;BME280;9221;42.646;23.380;2023-03-14T07:03:28;94529.88;;;5.98;55.27
3968;BME280;9221;42.646;23.380;2023-03-14T07:05:54;94515.53;;;6.14;54.54
3968;BME280;9221;42.646;23.380;2023-03-14T07:08:20;94457.50;;;5.97;53.68
3968;BME280;9221;42.646;23.380;2023-03-14T07:10:45;94465.16;;;6.21;52.91
3968;BME280;9221;42.646;23.380;2023-03-14T07:13:11;94491.50;;;6.62;51.98
3968;BME280;9221;42.646;23.380;2023-03-14T07:15:36;94430.59;;;6.49;52.76
3968;BME280;9221;42.646;23.380;2023-03-14T07:18:02;94512.78;;;7.21;51.98
3968;BME280;9221;42.646;23.380;2023-03-14T07:20:27;94436.13;;;7.17;50.54
3968;BME280;9221;42.646;23.380;2023-03-14T07:22:53;94444.31;;;7.24;49.28
3968;BME280;9221;42.646;23.380;2023-03-14T07:25:19;94456.34;;;7.36;49.88
3968;BME280;9221;42.646;23.380;2023-03-14T07:27:45;94494.03;;;7.86;49.68
3968;BME280;9221;42.646;23.380;2023-03-14T07:30:13;94549.94;;;8.27;48.64
3968;BME280;9221;42.646;23.380;2023-03-14T07:32:39;94493.75;;;8.38;47.39
3968;BME280;9221;42.646;23.380;2023-03-14T07:35:04;94442.34;;;8.16;47.36
3968;BME280;9221;42.646;23.380;2023-03-14T07:37:30;94424.66;;;8.18;46.58
3968;BME280;9221;42.646;23.380;2023-03-14T07:39:55;94422.56;;;8.51;45.80
3968;BME280;9221;42.646;23.380;2023-03-14T07:42:21;94497.44;;;9.41;44.78
3968;BME280;9221;42.646;23.380;2023-03-14T07:44:46;94429.00;;;9.41;43.98
3968;BME280;9221;42.646;23.380;2023-03-14T07:47:12;94432.81;;;9.57;43.31
3968;BME280;9221;42.646;23.380;2023-03-14T07:49:37;94446.47;;;10.06;43.28
3968;BME280;9221;42.646;23.380;2023-03-14T07:52:02;94445.31;;;10.27;42.91
3968;BME280;9221;42.646;23.380;2023-03-14T07:54:28;94472.63;;;10.80;42.73
3968;BME280;9221;42.646;23.380;2023-03-14T07:56:53;94500.34;;;10.84;43.56
3968;BME280;9221;42.646;23.380;2023-03-14T07:59:19;94373.94;;;10.38;42.44
3968;BME280;9221;42.646;23.380;2023-03-14T08:01:44;94419.44;;;10.93;41.80
3968;BME280;9221;42.646;23.380;2023-03-14T08:04:10;94456.44;;;11.78;41.22
3968;BME280;9221;42.646;23.380;2023-03-14T08:06:36;94460.41;;;11.91;40.10
3968;BME280;9221;42.646;23.380;2023-03-14T08:09:02;94477.09;;;11.91;40.50
3968;BME280;9221;42.646;23.380;2023-03-14T08:11:27;94428.38;;;11.94;38.90
3968;BME280;9221;42.646;23.380;2023-03-14T08:13:53;94418.84;;;12.01;38.59
3968;BME280;9221;42.646;23.380;2023-03-14T08:16:18;94455.56;;;12.53;38.42
3968;BME280;9221;42.646;23.380;2023-03-14T08:18:44;94472.38;;;13.02;38.05
3968;BME280;9221;42.646;23.380;2023-03-14T08:21:10;94493.53;;;13.10;37.66
3968;BME280;9221;42.646;23.380;2023-03-14T08:23:36;94413.50;;;12.83;37.44
3968;BME280;9221;42.646;23.380;2023-03-14T08:26:02;94494.00;;;13.30;36.67
3968;BME280;9221;42.646;23.380;2023-03-14T08:28:27;94457.47;;;13.01;36.67
3968;BME280;9221;42.646;23.380;2023-03-14T08:30:58;94463.66;;;13.58;36.78
3968;BME280;9221;42.646;23.380;2023-03-14T08:33:25;94452.66;;;14.00;35.70
3968;BME280;9221;42.646;23.380;2023-03-14T08:35:55;94456.28;;;13.76;35.39
3968;BME280;9221;42.646;23.380;2023-03-14T08:38:20;94442.72;;;13.71;35.67
3968;BME280;9221;42.646;23.380;2023-03-14T08:40:46;94392.91;;;13.90;35.15
3968;BME280;9221;42.646;23.380;2023-03-14T08:43:11;94466.84;;;14.39;34.17
3968;BME280;9221;42.646;23.380;2023-03-14T08:45:36;94431.84;;;14.67;34.07
3968;BME280;9221;42.646;23.380;2023-03-14T08:48:02;94442.28;;;15.21;33.45
3968;BME280;9221;42.646;23.380;2023-03-14T08:50:28;94433.19;;;15.01;32.72
3968;BME280;9221;42.646;23.380;2023-03-14T08:52:53;94400.50;;;15.15;33.24
3968;BME280;9221;42.646;23.380;2023-03-14T08:55:19;94431.53;;;15.60;32.09
3968;BME280;9221;42.646;23.380;2023-03-14T08:57:45;94423.06;;;16.01;31.16
3968;BME280;9221;42.646;23.380;2023-03-14T09:00:11;94415.19;;;16.36;31.82
3968;BME280;9221;42.646;23.380;2023-03-14T09:02:40;94367.47;;;16.56;30.52
3968;BME280;9221;42.646;23.380;2023-03-14T09:05:06;94438.34;;;16.57;30.22
3968;BME280;9221;42.646;23.380;2023-03-14T09:07:32;94406.56;;;17.05;30.08
3968;BME280;9221;42.646;23.380;2023-03-14T09:09:57;94399.75;;;17.66;29.17
3968;BME280;9221;42.646;23.380;2023-03-14T09:12:22;94401.50;;;17.94;28.71
3968;BME280;9221;42.646;23.380;2023-03-14T09:14:48;94391.28;;;17.56;28.70
3968;BME280;9221;42.646;23.380;2023-03-14T09:17:13;94353.25;;;17.34;29.25
3968;BME280;9221;42.646;23.380;2023-03-14T09:19:39;94369.38;;;16.90;29.19
3968;BME280;9221;42.646;23.380;2023-03-14T09:22:04;94375.94;;;17.71;28.98
3968;BME280;9221;42.646;23.380;2023-03-14T09:24:30;94400.00;;;18.40;28.02
3968;BME280;9221;42.646;23.380;2023-03-14T09:26:56;94411.31;;;18.82;27.22
3968;BME280;9221;42.646;23.380;2023-03-14T09:29:22;94354.75;;;19.12;27.16
3968;BME280;9221;42.646;23.380;2023-03-14T09:31:47;94345.72;;;18.06;28.01
3968;BME280;9221;42.646;23.380;2023-03-14T09:34:13;94314.78;;;17.63;27.80
3968;BME280;9221;42.646;23.380;2023-03-14T09:36:38;94348.59;;;18.11;27.65
3968;BME280;9221;42.646;23.380;2023-03-14T09:39:05;94397.47;;;18.12;27.20
3968;BME280;9221;42.646;23.380;2023-03-14T09:41:33;94301.38;;;18.45;27.07
3968;BME280;9221;42.646;23.380;2023-03-14T09:44:05;94327.66;;;18.21;27.06
3968;BME280;9221;42.646;23.380;2023-03-14T09:46:35;94309.16;;;18.00;27.71
3968;BME280;9221;42.646;23.380;2023-03-14T09:49:09;94325.41;;;18.52;27.47
3968;BME280;9221;42.646;23.380;2023-03-14T09:51:36;94309.16;;;19.07;26.99
3968;BME280;9221;42.646;23.380;2023-03-14T09:54:04;94308.50;;;19.18;26.90
3968;BME280;9221;42.646;23.380;2023-03-14T09:56:32;94306.25;;;19.15;26.89
3968;BME280;9221;42.646;23.380;2023-03-14T09:59:00;94266.38;;;19.07;27.17
3968;BME280;9221;42.646;23.380;2023-03-14T10:01:30;94312.69;;;19.46;27.58
3968;BME280;9221;42.646;23.380;2023-03-14T10:03:58;94295.81;;;18.93;27.55
3968;BME280;9221;42.646;23.380;2023-03-14T10:06:30;94303.84;;;18.67;28.53
3968;BME280;9221;42.646;23.380;2023-03-14T10:08:56;94239.22;;;19.10;27.62
3968;BME280;9221;42.646;23.380;2023-03-14T10:11:23;94280.78;;;19.51;27.55
3968;BME280;9221;42.646;23.380;2023-03-14T10:14:09;94282.47;;;18.00;28.93
3968;BME280;9221;42.646;23.380;2023-03-14T10:16:42;94282.69;;;17.30;30.42
3968;BME280;9221;42.646;23.380;2023-03-14T10:19:14;94273.88;;;16.87;30.82
3968;BME280;9221;42.646;23.380;2023-03-14T10:21:44;94294.09;;;17.10;31.54
3968;BME280;9221;42.646;23.380;2023-03-14T10:26:49;94171.94;;;17.14;31.53
3968;BME280;9221;42.646;23.380;2023-03-14T10:29:17;94188.41;;;18.58;30.51
3968;BME280;9221;42.646;23.380;2023-03-14T10:31:54;94253.28;;;19.76;28.77
3968;BME280;9221;42.646;23.380;2023-03-14T10:34:35;94178.03;;;19.66;28.53
3968;BME280;9221;42.646;23.380;2023-03-14T10:37:24;94225.72;;;20.33;28.21
3968;BME280;9221;42.646;23.380;2023-03-14T10:39:58;94182.47;;;19.78;27.58
3968;BME280;9221;42.646;23.380;2023-03-14T10:42:32;94236.09;;;20.48;27.43
3968;BME280;9221;42.646;23.380;2023-03-14T10:45:05;94196.53;;;19.67;28.17
3968;BME280;9221;42.646;23.380;2023-03-14T10:47:32;94163.53;;;19.48;27.81
3968;BME280;9221;42.646;23.380;2023-03-14T10:50:25;94188.44;;;20.06;28.74
3968;BME280;9221;42.646;23.380;2023-03-14T10:52:53;94177.50;;;20.33;27.57
3968;BME280;9221;42.646;23.380;2023-03-14T10:55:18;94168.88;;;20.31;27.73
3968;BME280;9221;42.646;23.380;2023-03-14T10:57:44;94117.41;;;20.28;27.62
3968;BME280;9221;42.646;23.380;2023-03-14T11:00:18;94133.06;;;20.69;26.86
3968;BME280;9221;42.646;23.380;2023-03-14T11:02:51;94125.16;;;20.37;26.22
3968;BME280;9221;42.646;23.380;2023-03-14T11:08:42;94129.00;;;20.22;27.43
3968;BME280;9221;42.646;23.380;2023-03-14T11:11:19;94117.41;;;20.66;26.49
3968;BME280;9221;42.646;23.380;2023-03-14T11:13:58;94118.31;;;21.08;26.37
3968;BME280;9221;42.646;23.380;2023-03-14T11:16:38;94134.38;;;21.69;25.91
3968;BME280;9221;42.646;23.380;2023-03-14T11:27:23;94113.47;;;22.78;24.21
3968;BME280;9221;42.646;23.380;2023-03-14T11:29:55;94071.31;;;22.67;23.88
3968;BME280;9221;42.646;23.380;2023-03-14T11:35:15;94067.75;;;23.07;24.40
3968;BME280;9221;42.646;23.380;2023-03-14T11:37:47;94088.13;;;23.03;23.40
3968;BME280;9221;42.646;23.380;2023-03-14T11:40:21;94064.03;;;23.37;23.51
3968;BME280;9221;42.646;23.380;2023-03-14T11:43:06;94052.88;;;22.87;23.39
3968;BME280;9221;42.646;23.380;2023-03-14T11:45:37;94052.50;;;22.95;23.20
3968;BME280;9221;42.646;23.380;2023-03-14T11:50:38;94036.31;;;23.53;22.42
3968;BME280;9221;42.646;23.380;2023-03-14T11:53:23;94026.53;;;24.20;21.94
3968;BME280;9221;42.646;23.380;2023-03-14T11:55:51;94049.56;;;24.50;21.70
3968;BME280;9221;42.646;23.380;2023-03-14T11:58:22;93970.81;;;24.04;22.17
3968;BME280;9221;42.646;23.380;2023-03-14T12:00:50;94008.38;;;23.93;22.39
3968;BME280;9221;42.646;23.380;2023-03-14T12:06:35;94004.44;;;24.62;21.74
3968;BME280;9221;42.646;23.380;2023-03-14T12:09:04;94012.19;;;24.81;22.01
3968;BME280;9221;42.646;23.380;2023-03-14T12:11:39;93958.97;;;23.65;21.14
3968;BME280;9221;42.646;23.380;2023-03-14T12:14:34;93993.41;;;23.29;22.41
3968;BME280;9221;42.646;23.380;2023-03-14T12:17:19;93939.72;;;23.06;22.26
3968;BME280;9221;42.646;23.380;2023-03-14T12:19:45;93959.41;;;23.40;22.40
3968;BME280;9221;42.646;23.380;2023-03-14T12:22:30;93954.47;;;23.71;21.90
3968;BME280;9221;42.646;23.380;2023-03-14T12:25:03;93920.75;;;22.95;22.17
3968;BME280;9221;42.646;23.380;2023-03-14T12:28:02;93994.38;;;23.23;23.16
3968;BME280;9221;42.646;23.380;2023-03-14T12:43:32;93930.72;;;23.68;22.14
3968;BME280;9221;42.646;23.380;2023-03-14T12:46:26;93953.94;;;23.18;21.88
3968;BME280;9221;42.646;23.380;2023-03-14T12:51:35;93908.72;;;22.11;23.27
3968;BME280;9221;42.646;23.380;2023-03-14T13:01:27;93891.47;;;20.11;25.04
3968;BME280;9221;42.646;23.380;2023-03-14T13:03:56;93862.66;;;19.76;25.43
3968;BME280;9221;42.646;23.380;2023-03-14T13:11:53;93889.06;;;20.21;25.27
3968;BME280;9221;42.646;23.380;2023-03-14T13:14:19;93885.38;;;20.34;25.47
3968;BME280;9221;42.646;23.380;2023-03-14T13:16:46;93865.41;;;20.18;25.29
3968;BME280;9221;42.646;23.380;2023-03-14T13:19:22;93878.22;;;20.16;25.12
3968;BME280;9221;42.646;23.380;2023-03-14T13:21:50;93883.19;;;19.82;25.26
3968;BME280;9221;42.646;23.380;2023-03-14T13:24:22;93913.63;;;19.44;24.97
3968;BME280;9221;42.646;23.380;2023-03-14T13:26:48;93812.16;;;19.12;25.50
3968;BME280;9221;42.646;23.380;2023-03-14T13:29:18;93863.25;;;19.22;26.13
3968;BME280;9221;42.646;23.380;2023-03-14T13:31:46;93876.47;;;19.17;25.85
3968;BME280;9221;42.646;23.380;2023-03-14T13:34:11;93841.13;;;19.15;25.91
3968;BME280;9221;42.646;23.380;2023-03-14T13:36:38;93840.97;;;19.28;25.76
3968;BME280;9221;42.646;23.380;2023-03-14T13:39:06;93835.44;;;19.30;26.46
3968;BME280;9221;42.646;23.380;2023-03-14T13:41:36;93830.13;;;19.05;26.05
3968;BME280;9221;42.646;23.380;2023-03-14T13:44:12;93828.75;;;18.77;26.01
3968;BME280;9221;42.646;23.380;2023-03-14T13:46:39;93750.31;;;18.27;26.72
3968;BME280;9221;42.646;23.380;2023-03-14T13:49:06;93753.25;;;18.19;26.83
3968;BME280;9221;42.646;23.380;2023-03-14T13:51:38;93813.31;;;18.54;26.93
3968;BME280;9221;42.646;23.380;2023-03-14T13:54:17;93757.69;;;18.25;26.80
3968;BME280;9221;42.646;23.380;2023-03-14T13:56:43;93802.03;;;18.52;26.38
3968;BME280;9221;42.646;23.380;2023-03-14T13:59:28;93806.91;;;18.36;26.51
3968;BME280;9221;42.646;23.380;2023-03-14T14:01:56;93758.50;;;18.01;27.19
3968;BME280;9221;42.646;23.380;2023-03-14T14:04:25;93755.31;;;17.92;27.26
3968;BME280;9221;42.646;23.380;2023-03-14T14:06:59;93722.38;;;17.73;27.37
3968;BME280;9221;42.646;23.380;2023-03-14T14:09:31;93787.69;;;17.96;27.07
3968;BME280;9221;42.646;23.380;2023-03-14T14:12:06;93712.69;;;17.47;27.13
3968;BME280;9221;42.646;23.380;2023-03-14T14:14:47;93700.81;;;17.42;27.20
3968;BME280;9221;42.646;23.380;2023-03-14T14:17:23;93779.59;;;17.77;27.95
3968;BME280;9221;42.646;23.380;2023-03-14T14:19:51;93744.13;;;17.70;27.32